Time;durP1;ratioP1;P1;durP2;ratioP2;P2;SDS_P1;SDS_P2;PMS_P1;PMS_P2;Temp;Humidity;BMP_temperature;BMP_pressure;BME280_temperature;BME280_humidity;BME280_pressure;Samples;Min_cycle;Max_cycle;Signal;HPM_P1;HPM_P2
2021/01/25 00:03:25;;;;;;;17.05;10.32;;;;;;;1.28;83.43;97963.70;3634068;79;27316;-65
2021/01/25 00:08:27;;;;;;;19.70;11.57;;;;;;;1.29;83.42;97957.94;3667005;78;26885;-65
2021/01/25 00:13:31;;;;;;;16.97;12.07;;;;;;;1.31;83.13;97967.20;3667725;78;26299;-63
2021/01/25 00:18:35;;;;;;;17.30;11.67;;;;;;;1.38;82.88;97957.95;3664088;78;25922;-66
2021/01/25 00:23:39;;;;;;;15.10;9.33;;;;;;;1.33;83.12;97965.16;3668863;78;26969;-66
2021/01/25 00:28:42;;;;;;;19.97;12.30;;;;;;;1.32;83.18;97962.75;3679277;77;25702;-66
2021/01/25 00:33:45;;;;;;;13.53;10.18;;;;;;;1.40;83.05;97961.16;3666426;78;27262;-67
2021/01/25 00:38:48;;;;;;;13.23;11.00;;;;;;;1.45;83.17;97969.69;3691550;79;26703;-65
2021/01/25 00:43:52;;;;;;;16.50;12.05;;;;;;;1.40;82.67;97974.28;3667977;78;28242;-65
2021/01/25 00:48:56;;;;;;;17.00;11.23;;;;;;;1.39;82.92;97982.38;3661384;79;25921;-66
2021/01/25 00:54:00;;;;;;;10.47;6.57;;;;;;;1.49;82.72;97989.24;3705362;78;25928;-63
2021/01/25 00:59:03;;;;;;;16.15;9.95;;;;;;;1.45;82.54;97991.50;3686471;78;28879;-64
2021/01/25 01:04:06;;;;;;;17.67;10.70;;;;;;;1.50;82.93;98005.29;3727663;77;26482;-66
2021/01/25 01:09:10;;;;;;;18.12;11.22;;;;;;;1.49;82.60;98008.42;3695255;78;26457;-68
2021/01/25 01:14:13;;;;;;;17.50;11.18;;;;;;;1.52;82.36;98017.69;3718053;77;30452;-65
2021/01/25 01:19:16;;;;;;;13.23;9.53;;;;;;;1.54;82.34;98021.67;3732360;77;26090;-69
2021/01/25 01:24:20;;;;;;;15.80;11.27;;;;;;;1.55;82.33;98014.60;3685576;77;25895;-67
2021/01/25 01:29:23;;;;;;;15.43;10.10;;;;;;;1.52;82.36;98021.13;3640506;79;27005;-66
2021/01/25 01:34:28;;;;;;;16.53;10.63;;;;;;;1.52;82.11;98014.55;3626554;78;25900;-65
2021/01/25 01:39:31;;;;;;;14.60;9.00;;;;;;;1.48;81.83;98013.38;3615564;79;30144;-66
2021/01/25 01:44:33;;;;;;;17.60;11.55;;;;;;;1.39;81.94;98004.18;3627588;79;29998;-65
2021/01/25 01:49:38;;;;;;;53.33;24.57;;;;;;;1.34;81.61;97997.46;3636370;80;29954;-65
2021/01/25 01:54:42;;;;;;;27.87;16.33;;;;;;;1.34;81.91;98003.52;3593730;79;26276;-67
2021/01/25 01:59:46;;;;;;;10.83;8.73;;;;;;;1.30;81.64;97994.98;3530007;81;25881;-63
2021/01/25 02:04:49;;;;;;;14.80;10.33;;;;;;;1.25;81.35;97993.00;3662751;78;26613;-68
2021/01/25 02:09:53;;;;;;;11.65;8.98;;;;;;;1.22;81.54;97995.28;3686986;78;26766;-65
2021/01/25 02:14:59;;;;;;;11.47;7.93;;;;;;;1.29;81.26;98004.67;3628353;79;26125;-67
2021/01/25 02:20:17;;;;;;;9.65;7.55;;;;;;;1.29;81.35;98007.81;3641591;79;25999;-66
2021/01/25 02:25:35;;;;;;;14.63;9.30;;;;;;;1.26;81.41;98017.42;3649067;78;26305;-68
2021/01/25 02:30:41;;;;;;;10.63;7.05;;;;;;;1.25;81.72;98021.88;3653447;78;29222;-65
2021/01/25 02:35:47;;;;;;;13.43;9.03;;;;;;;1.28;81.51;98015.39;3652027;78;26612;-67
2021/01/25 02:40:52;;;;;;;14.63;10.40;;;;;;;1.31;81.94;98018.89;3653511;77;29926;-66
2021/01/25 02:45:57;;;;;;;14.03;10.27;;;;;;;1.30;82.13;98022.54;3614054;79;26036;-66
2021/01/25 02:51:02;;;;;;;17.00;10.73;;;;;;;1.31;81.96;98024.14;3683949;78;25934;-67
2021/01/25 02:56:06;;;;;;;19.47;10.80;;;;;;;1.32;81.93;98029.69;3680833;79;26421;-66
2021/01/25 03:01:11;;;;;;;19.93;13.40;;;;;;;1.29;82.29;98032.23;3671796;78;26980;-67
2021/01/25 03:06:15;;;;;;;15.43;10.72;;;;;;;1.29;82.08;98031.43;3686835;79;25849;-66
2021/01/25 03:11:19;;;;;;;17.70;11.22;;;;;;;1.34;81.62;98029.77;3664566;79;28292;-66
2021/01/25 03:16:22;;;;;;;20.82;12.43;;;;;;;1.29;81.39;98036.69;3661504;78;28346;-67
2021/01/25 03:21:26;;;;;;;21.23;15.93;;;;;;;1.22;81.81;98028.09;3667065;77;26666;-67
2021/01/25 03:26:29;;;;;;;20.48;12.33;;;;;;;1.27;82.00;98038.20;3683401;78;26290;-66
2021/01/25 03:31:33;;;;;;;18.95;12.80;;;;;;;1.30;81.99;98046.97;3684734;78;27224;-66
2021/01/25 03:36:36;;;;;;;23.30;14.23;;;;;;;1.30;81.62;98050.09;3685392;80;29814;-66
2021/01/25 03:41:40;;;;;;;19.55;13.05;;;;;;;1.24;82.25;98052.27;3684967;80;27356;-66
2021/01/25 03:46:47;;;;;;;15.40;11.23;;;;;;;1.32;82.32;98061.19;3684683;80;27133;-66
2021/01/25 03:51:49;;;;;;;21.33;12.23;;;;;;;1.35;82.10;98068.13;3685075;79;27355;-66
2021/01/25 03:56:52;;;;;;;27.17;15.90;;;;;;;1.28;82.33;98075.25;3685558;80;30152;-66
2021/01/25 04:01:56;;;;;;;23.92;13.98;;;;;;;1.23;82.34;98078.22;3685415;80;28298;-66
2021/01/25 04:07:00;;;;;;;26.33;13.50;;;;;;;1.25;82.18;98070.94;3683473;79;26925;-66
2021/01/25 04:12:04;;;;;;;17.25;10.78;;;;;;;1.17;82.04;98077.28;3684052;80;26386;-66
2021/01/25 04:17:08;;;;;;;24.63;15.20;;;;;;;1.06;81.91;98083.22;3683545;80;26431;-66
2021/01/25 04:22:11;;;;;;;24.33;16.87;;;;;;;1.12;81.99;98090.24;3647079;79;25955;-66
2021/01/25 04:27:13;;;;;;;22.87;15.00;;;;;;;1.14;81.40;98103.16;3644256;79;27360;-66
2021/01/25 04:32:17;;;;;;;27.03;14.43;;;;;;;1.15;81.64;98108.19;3588744;80;26282;-66
2021/01/25 04:37:21;;;;;;;18.15;11.05;;;;;;;1.12;81.43;98116.48;3581475;80;30497;-66
2021/01/25 04:42:23;;;;;;;16.60;11.28;;;;;;;1.15;81.49;98117.88;3610608;80;28254;-66
2021/01/25 04:47:28;;;;;;;21.23;11.45;;;;;;;1.10;81.30;98114.58;3693493;78;28722;-70
2021/01/25 04:52:33;;;;;;;23.00;14.17;;;;;;;1.04;81.53;98118.05;3686621;78;26574;-65
2021/01/25 04:57:37;;;;;;;21.90;14.47;;;;;;;1.08;81.43;98113.98;3673893;78;28365;-66
2021/01/25 05:02:43;;;;;;;22.00;11.37;;;;;;;1.13;81.30;98105.48;3708288;77;25855;-68
2021/01/25 05:07:47;;;;;;;22.80;10.88;;;;;;;1.08;81.38;98104.00;3682710;78;29577;-66
2021/01/25 05:12:52;;;;;;;15.30;8.85;;;;;;;1.06;81.04;98106.84;3653981;79;30667;-67
2021/01/25 05:17:57;;;;;;;15.80;11.18;;;;;;;1.04;80.94;98109.38;3673711;78;28661;-67
2021/01/25 05:23:04;;;;;;;11.60;6.07;;;;;;;1.05;80.40;98106.54;3658183;78;26002;-67
2021/01/25 05:28:19;;;;;;;23.23;14.80;;;;;;;0.97;80.52;98108.91;3631521;79;26144;-66
2021/01/25 05:33:29;;;;;;;15.43;10.47;;;;;;;1.07;80.49;98111.07;3607941;80;25919;-69
2021/01/25 05:38:33;;;;;;;14.07;7.75;;;;;;;1.10;80.46;98105.40;3601208;80;26229;-69
2021/01/25 05:43:36;;;;;;;13.30;8.47;;;;;;;1.07;79.48;98108.45;3622553;79;25909;-70
2021/01/25 05:48:40;;;;;;;11.55;7.53;;;;;;;1.06;79.90;98123.09;3667915;78;29266;-70
2021/01/25 05:53:46;;;;;;;17.83;15.30;;;;;;;1.05;79.59;98124.91;3667971;79;26870;-70
2021/01/25 05:58:49;;;;;;;11.23;7.50;;;;;;;1.07;79.84;98118.14;3669403;79;27402;-66
2021/01/25 06:03:55;;;;;;;9.03;5.35;;;;;;;1.04;79.85;98121.98;3661107;79;29946;-67
2021/01/25 06:09:18;;;;;;;12.20;6.90;;;;;;;1.07;79.30;98117.63;3622377;79;29516;-64
2021/01/25 06:14:54;;;;;;;10.78;7.65;;;;;;;1.03;79.17;98126.13;3612056;80;28877;-64
2021/01/25 06:19:58;;;;;;;11.13;7.97;;;;;;;1.00;79.50;98129.48;3619831;79;26088;-63
2021/01/25 06:25:02;;;;;;;9.38;4.58;;;;;;;1.05;79.97;98135.91;3598661;79;30467;-64
2021/01/25 06:30:10;;;;;;;12.07;8.53;;;;;;;0.93;80.02;98139.20;3631592;80;29415;-69
2021/01/25 06:35:16;;;;;;;14.20;8.13;;;;;;;1.00;80.54;98144.41;3558611;79;25961;-65
2021/01/25 06:40:27;;;;;;;16.07;8.63;;;;;;;1.10;80.63;98151.83;3646105;78;25895;-67
2021/01/25 06:45:30;;;;;;;12.80;6.63;;;;;;;1.11;81.10;98156.06;3580774;80;26631;-65
2021/01/25 06:50:36;;;;;;;16.20;9.10;;;;;;;1.03;81.43;98153.17;3628733;80;27440;-65
2021/01/25 06:55:45;;;;;;;17.37;11.27;;;;;;;1.09;80.94;98160.20;3662787;80;25923;-67
2021/01/25 07:00:52;;;;;;;16.37;11.10;;;;;;;1.09;81.55;98162.83;3655444;80;26608;-67
2021/01/25 07:05:58;;;;;;;22.00;11.03;;;;;;;1.00;81.78;98171.96;3643524;79;26155;-66
2021/01/25 07:11:05;;;;;;;16.60;9.50;;;;;;;1.01;82.55;98172.27;3634943;79;25918;-67
2021/01/25 07:16:08;;;;;;;17.67;9.83;;;;;;;1.04;82.08;98172.35;3635340;79;27602;-65
2021/01/25 07:21:14;;;;;;;20.62;12.68;;;;;;;0.97;82.31;98178.44;3644470;79;28646;-64
2021/01/25 07:26:19;;;;;;;18.20;10.37;;;;;;;0.97;82.34;98171.87;3643715;79;25832;-68
2021/01/25 07:31:25;;;;;;;26.23;11.08;;;;;;;0.99;81.80;98168.53;3727160;78;29268;-64
2021/01/25 07:36:32;;;;;;;21.70;9.50;;;;;;;1.03;82.03;98168.12;3732321;76;28187;-71
2021/01/25 07:41:37;;;;;;;26.73;13.40;;;;;;;1.08;81.74;98176.16;3729738;77;27456;-69
2021/01/25 07:46:43;;;;;;;29.37;13.30;;;;;;;1.15;81.94;98187.43;3720405;77;26815;-71
2021/01/25 07:51:45;;;;;;;22.13;11.00;;;;;;;1.29;81.75;98183.68;3707483;77;28305;-68
2021/01/25 07:56:47;;;;;;;21.48;12.35;;;;;;;1.34;81.32;98189.91;3706394;78;26290;-73
2021/01/25 08:02:00;;;;;;;22.83;13.43;;;;;;;1.37;81.48;98187.87;3724320;78;25711;-66
2021/01/25 08:07:02;;;;;;;14.68;10.13;;;;;;;1.42;80.51;98205.91;3740656;78;30102;-65
2021/01/25 08:12:06;;;;;;;20.60;11.90;;;;;;;1.46;80.34;98211.55;3657943;78;26841;-67
2021/01/25 08:17:13;;;;;;;22.55;13.18;;;;;;;1.50;80.45;98210.11;3652138;77;30671;-67
2021/01/25 08:22:23;;;;;;;24.60;16.75;;;;;;;1.51;79.90;98204.64;3650169;77;26305;-67
2021/01/25 08:27:26;;;;;;;18.23;11.68;;;;;;;1.61;79.66;98209.39;3626392;78;26360;-66
2021/01/25 08:32:40;;;;;;;14.30;8.80;;;;;;;1.66;79.23;98207.73;3661348;77;25818;-66
2021/01/25 08:37:42;;;;;;;16.60;12.77;;;;;;;1.61;78.94;98204.14;3690139;77;26115;-65
2021/01/25 08:42:45;;;;;;;18.70;10.10;;;;;;;1.59;79.17;98206.98;3675236;77;27368;-65
2021/01/25 08:47:49;;;;;;;14.63;9.85;;;;;;;1.70;78.17;98204.17;3682732;77;28445;-64
2021/01/25 08:53:05;;;;;;;17.85;10.48;;;;;;;1.65;77.85;98207.44;3671553;77;29113;-64
2021/01/25 08:58:29;;;;;;;13.30;8.95;;;;;;;1.63;78.41;98202.91;3648902;79;30109;-67
2021/01/25 09:03:31;;;;;;;17.77;11.97;;;;;;;1.59;78.55;98207.48;3639440;78;26540;-65
2021/01/25 09:08:33;;;;;;;18.23;11.55;;;;;;;1.53;78.52;98215.70;3646065;78;30708;-64
2021/01/25 09:13:36;;;;;;;18.92;11.15;;;;;;;1.53;78.79;98222.81;3634156;79;29739;-66
2021/01/25 09:18:38;;;;;;;14.58;8.18;;;;;;;1.52;79.23;98226.45;3646731;76;28710;-67
2021/01/25 09:23:41;;;;;;;18.85;11.80;;;;;;;1.40;79.12;98228.95;3647254;79;27269;-66
2021/01/25 09:28:43;;;;;;;17.20;9.37;;;;;;;1.43;79.13;98241.66;3674257;76;25928;-65
2021/01/25 09:33:45;;;;;;;15.18;10.40;;;;;;;1.41;78.33;98237.12;3682375;77;29998;-64
2021/01/25 09:38:47;;;;;;;17.75;11.95;;;;;;;1.32;78.99;98239.70;3697424;77;28233;-67
2021/01/25 09:43:50;;;;;;;8.25;7.05;;;;;;;1.25;79.22;98248.11;3692315;78;27170;-64
2021/01/25 09:48:52;;;;;;;18.57;10.70;;;;;;;1.26;78.67;98252.34;3646064;79;34823;-63
2021/01/25 09:53:54;;;;;;;17.30;10.77;;;;;;;1.39;77.88;98252.79;3639933;79;26775;-64
2021/01/25 09:58:58;;;;;;;21.20;14.40;;;;;;;1.36;77.99;98246.14;3648962;79;43572;-65
2021/01/25 10:04:01;;;;;;;14.80;9.38;;;;;;;1.39;77.85;98247.53;3647335;79;28230;-64
2021/01/25 10:09:04;;;;;;;19.05;12.47;;;;;;;1.39;77.94;98248.34;3671206;78;29961;-65
2021/01/25 10:14:08;;;;;;;18.63;10.37;;;;;;;1.42;77.11;98254.48;3688700;78;25867;-67
2021/01/25 10:19:12;;;;;;;19.33;13.90;;;;;;;1.38;77.68;98252.48;3647188;79;26149;-66
2021/01/25 10:24:15;;;;;;;17.17;12.63;;;;;;;1.42;77.61;98261.05;3645127;79;29292;-67
2021/01/25 10:29:18;;;;;;;17.40;10.97;;;;;;;1.42;77.96;98259.73;3627098;78;26937;-65
2021/01/25 10:34:22;;;;;;;18.42;11.63;;;;;;;1.35;77.68;98265.02;3603612;78;26879;-65
2021/01/25 10:39:27;;;;;;;21.07;12.80;;;;;;;1.35;77.67;98270.27;3632184;79;26439;-66
2021/01/25 10:44:30;;;;;;;21.60;12.23;;;;;;;1.37;77.82;98260.07;3633921;80;29354;-66
2021/01/25 10:49:33;;;;;;;24.20;16.48;;;;;;;1.27;78.70;98256.08;3632928;79;31444;-66
2021/01/25 10:54:36;;;;;;;19.73;13.55;;;;;;;1.17;79.36;98253.13;3631246;80;29354;-63
2021/01/25 10:59:39;;;;;;;12.97;10.13;;;;;;;1.26;78.29;98254.97;3632743;80;26499;-64
2021/01/25 11:04:43;;;;;;;11.00;9.73;;;;;;;1.22;79.17;98257.75;3613795;80;28562;-65
2021/01/25 11:09:46;;;;;;;13.63;11.23;;;;;;;1.25;78.94;98263.86;3633130;80;25837;-66
2021/01/25 11:14:50;;;;;;;10.43;7.27;;;;;;;1.39;77.96;98267.23;3615587;80;25901;-66
2021/01/25 11:19:53;;;;;;;10.38;8.33;;;;;;;1.37;77.74;98266.13;3632374;80;25910;-66
2021/01/25 11:24:57;;;;;;;14.50;7.93;;;;;;;1.27;78.63;98261.84;3630390;80;26285;-64
2021/01/25 11:30:01;;;;;;;14.20;8.68;;;;;;;1.16;79.04;98267.27;3654343;77;30875;-65
2021/01/25 11:35:05;;;;;;;13.57;11.00;;;;;;;1.17;78.75;98268.07;3666974;79;26622;-66
2021/01/25 11:40:10;;;;;;;15.13;9.30;;;;;;;1.26;78.51;98273.35;3732611;77;26697;-65
2021/01/25 11:45:15;;;;;;;10.85;7.92;;;;;;;1.25;77.80;98275.67;3734635;77;29348;-65
2021/01/25 11:50:18;;;;;;;13.50;9.03;;;;;;;1.24;78.00;98276.19;3709324;78;29888;-67
2021/01/25 11:55:20;;;;;;;16.52;13.28;;;;;;;1.28;77.70;98279.20;3730571;76;30857;-65
2021/01/25 12:00:23;;;;;;;14.20;10.58;;;;;;;1.32;77.46;98275.14;3720094;77;30632;-66
2021/01/25 12:05:26;;;;;;;12.45;8.08;;;;;;;1.29;77.73;98274.24;3711031;78;30306;-68
2021/01/25 12:10:28;;;;;;;13.60;9.03;;;;;;;1.23;78.09;98272.45;3728375;78;30212;-65
2021/01/25 12:15:30;;;;;;;13.77;8.70;;;;;;;1.28;78.45;98277.88;3729881;78;25891;-64
2021/01/25 12:20:50;;;;;;;12.53;9.35;;;;;;;1.32;77.61;98273.31;3740083;78;30464;-65
2021/01/25 12:25:52;;;;;;;10.20;8.33;;;;;;;1.28;77.92;98273.95;3743082;77;34981;-66
2021/01/25 12:30:55;;;;;;;22.33;9.97;;;;;;;1.17;78.46;98275.44;3688738;78;26801;-66
2021/01/25 12:35:59;;;;;;;13.48;9.83;;;;;;;1.30;78.84;98279.80;3668071;79;26684;-64
2021/01/25 12:41:01;;;;;;;16.97;10.00;;;;;;;1.28;77.84;98273.95;3634460;79;25945;-69
2021/01/25 12:46:04;;;;;;;16.40;9.67;;;;;;;1.26;78.21;98277.28;3618554;79;27103;-67
2021/01/25 12:51:06;;;;;;;13.00;7.77;;;;;;;1.31;78.22;98285.34;3602625;79;26573;-66
2021/01/25 12:56:09;;;;;;;15.63;8.73;;;;;;;1.25;78.57;98291.42;3595587;79;26625;-64
2021/01/25 13:01:13;;;;;;;18.93;13.10;;;;;;;1.21;78.98;98292.38;3586600;79;26751;-62
2021/01/25 13:06:17;;;;;;;11.95;8.88;;;;;;;1.30;78.59;98295.55;3561600;79;28220;-64
2021/01/25 13:11:22;;;;;;;9.43;6.20;;;;;;;1.34;78.48;98294.91;3569590;80;27450;-65
2021/01/25 13:16:28;;;;;;;11.85;7.30;;;;;;;1.27;78.68;98292.83;3591945;79;30246;-64
2021/01/25 13:21:31;;;;;;;16.57;10.10;;;;;;;1.26;79.25;98302.22;3597939;79;28672;-67
2021/01/25 13:26:35;;;;;;;17.15;9.80;;;;;;;1.22;79.21;98310.25;3605438;79;25914;-68
2021/01/25 13:31:39;;;;;;;21.60;13.97;;;;;;;1.30;79.24;98317.86;3599992;79;26600;-66
2021/01/25 13:36:43;;;;;;;16.52;10.15;;;;;;;1.30;79.32;98317.86;3634464;78;30286;-64
2021/01/25 13:41:47;;;;;;;15.73;8.93;;;;;;;1.30;79.37;98323.11;3679484;79;25880;-67
2021/01/25 13:46:50;;;;;;;16.17;11.28;;;;;;;1.34;79.04;98328.23;3681111;79;28761;-67
2021/01/25 13:51:56;;;;;;;11.57;9.30;;;;;;;1.41;78.89;98330.84;3681317;78;30161;-68
2021/01/25 13:57:00;;;;;;;13.87;9.37;;;;;;;1.33;78.35;98339.75;3680994;78;26087;-67
2021/01/25 14:02:05;;;;;;;12.43;8.90;;;;;;;1.30;78.53;98338.86;3680695;78;31120;-67
2021/01/25 14:07:10;;;;;;;15.50;11.05;;;;;;;1.26;78.48;98358.16;3678986;79;29816;-68
2021/01/25 14:12:13;;;;;;;14.70;9.15;;;;;;;1.33;78.52;98359.45;3679984;79;29227;-70
2021/01/25 14:17:16;;;;;;;9.83;7.50;;;;;;;1.33;78.55;98364.70;3679752;77;26129;-69
2021/01/25 14:22:20;;;;;;;22.63;12.37;;;;;;;1.27;78.65;98371.58;3681699;78;25761;-69
2021/01/25 14:27:23;;;;;;;16.70;12.30;;;;;;;1.32;79.46;98378.83;3681441;79;26172;-67
2021/01/25 14:32:26;;;;;;;15.25;11.35;;;;;;;1.31;78.56;98384.59;3538779;82;26829;-67
2021/01/25 14:37:28;;;;;;;23.07;16.33;;;;;;;1.22;79.36;98394.24;3564363;81;26499;-69
2021/01/25 14:42:32;;;;;;;15.53;10.93;;;;;;;1.13;79.12;98400.72;3563716;81;25964;-66
2021/01/25 14:47:40;;;;;;;17.60;10.07;;;;;;;1.10;78.90;98402.44;3576076;80;25970;-68
2021/01/25 14:52:43;;;;;;;18.73;12.63;;;;;;;1.07;79.41;98422.03;3589889;80;26460;-69
2021/01/25 14:57:47;;;;;;;25.60;13.67;;;;;;;1.11;78.80;98423.73;3588994;80;26606;-68
2021/01/25 15:02:51;;;;;;;15.75;9.43;;;;;;;1.14;79.00;98438.58;3566313;80;30392;-67
2021/01/25 15:07:55;;;;;;;22.05;11.75;;;;;;;1.08;79.12;98439.39;3618152;80;28274;-68
2021/01/25 15:12:58;;;;;;;21.07;12.80;;;;;;;1.05;79.16;98443.73;3621095;80;26654;-63
2021/01/25 15:18:01;;;;;;;21.23;12.50;;;;;;;1.13;79.40;98459.27;3597916;80;26258;-66
2021/01/25 15:23:06;;;;;;;17.77;11.73;;;;;;;1.09;78.55;98462.50;3504107;82;25949;-65
2021/01/25 15:28:10;;;;;;;15.97;10.10;;;;;;;1.04;78.93;98464.92;3591055;81;26028;-64
2021/01/25 15:33:18;;;;;;;20.00;9.88;;;;;;;1.05;78.44;98479.16;3623262;79;26255;-64
2021/01/25 15:38:22;;;;;;;18.57;12.17;;;;;;;1.07;78.76;98480.27;3684036;79;25795;-63
2021/01/25 15:43:25;;;;;;;18.80;12.20;;;;;;;1.10;78.70;98486.42;3613355;79;26437;-67
2021/01/25 15:48:29;;;;;;;18.95;10.60;;;;;;;1.06;78.95;98493.89;3615228;80;27397;-67
2021/01/25 15:53:32;;;;;;;20.15;14.40;;;;;;;1.07;78.74;98502.06;3616179;80;27058;-71
2021/01/25 15:58:35;;;;;;;16.27;11.85;;;;;;;1.05;78.91;98501.46;3657474;79;26424;-70
2021/01/25 16:03:39;;;;;;;19.63;12.10;;;;;;;1.06;78.50;98509.64;3721221;77;26000;-68
2021/01/25 16:08:43;;;;;;;19.37;11.47;;;;;;;1.10;78.74;98513.47;3717161;78;25899;-67
2021/01/25 16:13:46;;;;;;;18.20;10.68;;;;;;;1.10;78.98;98526.59;3726006;77;28940;-67
2021/01/25 16:18:50;;;;;;;25.12;12.98;;;;;;;1.16;78.51;98531.04;3669281;78;29420;-65
2021/01/25 16:23:53;;;;;;;19.23;10.80;;;;;;;1.09;78.52;98520.23;3696939;77;36325;-65
2021/01/25 16:28:58;;;;;;;20.30;12.33;;;;;;;1.03;79.27;98522.36;3622281;80;26495;-74
2021/01/25 16:34:01;;;;;;;20.45;14.90;;;;;;;1.08;79.13;98523.37;3590748;79;30212;-71
2021/01/25 16:39:05;;;;;;;17.65;10.00;;;;;;;1.07;79.02;98516.50;3564592;80;30105;-69
2021/01/25 16:44:09;;;;;;;19.97;12.77;;;;;;;1.02;79.48;98524.17;3582189;80;27370;-70
2021/01/25 16:49:14;;;;;;;18.20;11.60;;;;;;;1.09;79.41;98527.61;3600847;78;26586;-69
2021/01/25 16:54:20;;;;;;;21.93;10.67;;;;;;;1.10;79.49;98535.78;3624591;78;26726;-68
2021/01/25 16:59:23;;;;;;;22.03;12.37;;;;;;;1.00;80.17;98545.87;3639077;79;25934;-68
2021/01/25 17:04:27;;;;;;;21.10;12.88;;;;;;;1.06;79.54;98550.31;3564750;81;26025;-68
2021/01/25 17:09:30;;;;;;;19.00;12.77;;;;;;;1.10;79.29;98555.47;3669393;78;25956;-67
2021/01/25 17:14:33;;;;;;;22.13;14.00;;;;;;;1.06;79.28;98554.75;3676680;77;29361;-67
2021/01/25 17:19:36;;;;;;;19.37;11.27;;;;;;;1.03;79.88;98559.09;3692942;77;25888;-68
2021/01/25 17:24:43;;;;;;;19.47;11.73;;;;;;;1.02;79.69;98563.53;3708201;77;25978;-67
2021/01/25 17:29:46;;;;;;;20.68;14.95;;;;;;;1.01;79.80;98567.98;3662847;77;26788;-65
2021/01/25 17:34:51;;;;;;;19.33;12.93;;;;;;;1.05;79.50;98567.57;3602723;79;26061;-65
2021/01/25 17:39:56;;;;;;;16.30;8.73;;;;;;;1.10;78.99;98573.84;3610923;79;28993;-65
2021/01/25 17:44:59;;;;;;;11.57;8.70;;;;;;;1.06;78.54;98573.94;3590850;80;26109;-63
2021/01/25 17:50:07;;;;;;;20.65;11.20;;;;;;;0.98;78.87;98577.56;3602844;80;26540;-67
2021/01/25 17:55:17;;;;;;;15.60;9.53;;;;;;;0.94;79.07;98578.97;3597044;79;26164;-66
2021/01/25 18:00:24;;;;;;;19.00;12.43;;;;;;;0.98;78.65;98588.05;3610977;78;26498;-65
2021/01/25 18:05:29;;;;;;;15.78;8.88;;;;;;;1.00;78.54;98587.35;3607766;80;26755;-70
2021/01/25 18:10:35;;;;;;;19.12;12.28;;;;;;;0.94;79.32;98581.59;3606129;80;26033;-69
2021/01/25 18:15:38;;;;;;;26.67;15.90;;;;;;;0.90;79.41;98576.47;3630225;79;26501;-69
2021/01/25 18:20:42;;;;;;;19.83;11.07;;;;;;;0.96;79.29;98587.45;3635420;79;26008;-69
2021/01/25 18:25:45;;;;;;;21.23;14.30;;;;;;;0.93;79.30;98586.53;3625260;79;29942;-69
2021/01/25 18:30:48;;;;;;;19.60;14.15;;;;;;;0.94;79.50;98588.66;3607193;79;30376;-70
2021/01/25 18:35:52;;;;;;;22.30;12.47;;;;;;;0.89;79.69;98590.59;3589636;79;30656;-71
2021/01/25 18:40:54;;;;;;;19.25;12.25;;;;;;;0.94;79.61;98583.41;3622537;80;28299;-69
2021/01/25 18:45:57;;;;;;;19.37;10.98;;;;;;;0.94;79.16;98584.72;3631758;80;26501;-68
2021/01/25 18:51:00;;;;;;;25.57;13.45;;;;;;;0.90;79.15;98576.97;3631461;79;30099;-68
2021/01/25 18:56:04;;;;;;;17.12;11.57;;;;;;;0.95;78.77;98578.46;3625805;80;28696;-69
2021/01/25 19:01:07;;;;;;;16.23;11.33;;;;;;;0.88;78.73;98586.35;3610082;80;26003;-68
2021/01/25 19:06:11;;;;;;;29.33;15.50;;;;;;;0.88;78.89;98594.22;3592216;80;27547;-69
2021/01/25 19:11:15;;;;;;;21.62;12.55;;;;;;;0.91;78.72;98599.58;3585179;80;29360;-68
2021/01/25 19:16:20;;;;;;;14.03;10.00;;;;;;;0.89;78.64;98595.84;3587083;80;26224;-65
2021/01/25 19:21:31;;;;;;;20.07;11.30;;;;;;;0.89;78.71;98614.70;3656356;78;35524;-65
2021/01/25 19:26:34;;;;;;;14.50;8.98;;;;;;;0.91;78.43;98619.25;3591366;80;29104;-65
2021/01/25 19:31:37;;;;;;;13.28;10.45;;;;;;;0.94;78.48;98623.57;3579503;80;30231;-65
2021/01/25 19:36:42;;;;;;;19.32;11.22;;;;;;;0.90;78.28;98621.57;3636988;79;30017;-66
2021/01/25 19:41:45;;;;;;;22.10;13.00;;;;;;;0.82;78.74;98626.50;3625333;79;30194;-63
2021/01/25 19:46:50;;;;;;;23.90;13.10;;;;;;;0.82;78.33;98634.37;3568609;79;28737;-65
2021/01/25 19:51:54;;;;;;;75.90;32.93;;;;;;;0.88;78.24;98635.39;3542160;80;30267;-64
2021/01/25 19:56:56;;;;;;;165.52;45.52;;;;;;;0.91;78.43;98637.12;3546555;80;29548;-65
2021/01/25 20:02:00;;;;;;;127.27;40.30;;;;;;;0.88;78.56;98638.83;3549597;80;30797;-65
2021/01/25 20:07:04;;;;;;;27.50;13.53;;;;;;;0.88;78.87;98646.69;3547701;80;30203;-64
2021/01/25 20:12:10;;;;;;;27.10;15.05;;;;;;;0.85;78.81;98652.84;3543479;78;30412;-65
2021/01/25 20:17:14;;;;;;;18.20;11.40;;;;;;;0.87;78.56;98656.08;3503135;80;34670;-65
2021/01/25 20:22:17;;;;;;;21.23;12.75;;;;;;;0.75;78.88;98656.34;3525536;81;29889;-69
2021/01/25 20:27:21;;;;;;;25.23;16.20;;;;;;;0.70;79.17;98660.86;3521441;81;30184;-70
2021/01/25 20:32:24;;;;;;;19.45;14.60;;;;;;;0.76;78.99;98665.31;3517540;82;30477;-70
2021/01/25 20:37:25;;;;;;;34.43;21.77;;;;;;;0.74;78.67;98667.33;3528772;81;27262;-70
2021/01/25 20:42:28;;;;;;;22.90;14.18;;;;;;;0.79;78.38;98667.55;3520461;79;30298;-69
2021/01/25 20:47:32;;;;;;;23.70;13.95;;;;;;;0.77;78.55;98672.69;3515836;82;30354;-67
2021/01/25 20:52:35;;;;;;;25.62;15.63;;;;;;;0.65;78.56;98675.06;3521313;81;28307;-67
2021/01/25 20:57:39;;;;;;;29.12;15.70;;;;;;;0.72;78.52;98682.95;3525592;79;29556;-64
2021/01/25 21:02:43;;;;;;;17.60;8.77;;;;;;;0.70;77.78;98690.21;3526012;80;26065;-65
2021/01/25 21:07:48;;;;;;;20.35;11.73;;;;;;;0.58;78.08;98688.67;3501474;81;30410;-64
2021/01/25 21:12:52;;;;;;;30.12;17.80;;;;;;;0.58;78.45;98693.92;3528378;82;27389;-67
2021/01/25 21:17:56;;;;;;;34.10;17.55;;;;;;;0.67;77.63;98704.53;3519126;79;30091;-68
2021/01/25 21:22:59;;;;;;;29.82;16.95;;;;;;;0.67;77.32;98708.45;3536577;80;30150;-68
2021/01/25 21:28:06;;;;;;;34.27;19.73;;;;;;;0.65;77.68;98711.78;3558422;81;30067;-68
2021/01/25 21:33:11;;;;;;;39.07;22.73;;;;;;;0.64;77.88;98712.78;3544013;81;34910;-68
2021/01/25 21:38:18;;;;;;;38.95;19.80;;;;;;;0.57;77.16;98709.34;3531754;81;29287;-68
2021/01/25 21:43:22;;;;;;;31.48;15.72;;;;;;;0.60;76.59;98715.52;3514620;82;30252;-68
2021/01/25 21:48:26;;;;;;;25.30;12.45;;;;;;;0.61;76.16;98717.13;3514261;82;30537;-68
2021/01/25 21:53:30;;;;;;;4.87;3.45;;;;;;;0.55;75.30;98727.09;3514576;82;29259;-68
2021/01/25 21:58:34;;;;;;;13.83;7.55;;;;;;;0.46;75.76;98721.69;3516846;81;31161;-66
2021/01/25 22:03:39;;;;;;;19.62;11.40;;;;;;;0.41;74.45;98728.02;3563825;81;29234;-65
2021/01/25 22:08:42;;;;;;;17.67;10.00;;;;;;;0.50;74.44;98730.79;3637387;80;29882;-65
2021/01/25 22:13:47;;;;;;;18.20;11.43;;;;;;;0.43;73.21;98732.56;3636788;80;30138;-65
2021/01/25 22:18:49;;;;;;;19.17;10.85;;;;;;;0.44;74.25;98732.38;3633903;80;30088;-66
2021/01/25 22:23:58;;;;;;;16.00;9.98;;;;;;;0.45;73.15;98732.68;3623355;81;31049;-67
2021/01/25 22:29:01;;;;;;;16.52;9.68;;;;;;;0.46;71.72;98730.87;3623724;80;30132;-67
2021/01/25 22:34:06;;;;;;;17.95;9.68;;;;;;;0.46;72.30;98732.18;3625162;80;30534;-69
2021/01/25 22:39:11;;;;;;;14.58;9.38;;;;;;;0.49;71.65;98735.73;3644821;80;30103;-66
2021/01/25 22:44:13;;;;;;;14.05;8.53;;;;;;;0.47;71.56;98741.16;3649728;80;30137;-66
2021/01/25 22:49:17;;;;;;;15.60;9.00;;;;;;;0.48;73.07;98747.22;3649302;80;27332;-66
2021/01/25 22:54:21;;;;;;;18.75;9.45;;;;;;;0.47;72.35;98739.04;3649490;80;30469;-67
2021/01/25 22:59:25;;;;;;;17.52;8.83;;;;;;;0.39;73.13;98745.25;3622717;81;30397;-66
2021/01/25 23:04:29;;;;;;;16.75;9.58;;;;;;;0.40;72.16;98739.00;3613112;80;29348;-66
2021/01/25 23:09:31;;;;;;;18.67;11.37;;;;;;;0.40;72.42;98747.36;3598319;80;26304;-66
2021/01/25 23:14:33;;;;;;;17.60;8.77;;;;;;;0.38;72.01;98742.81;3625368;80;26773;-65
2021/01/25 23:19:37;;;;;;;15.05;9.20;;;;;;;0.37;71.62;98751.18;3624228;80;26205;-66
2021/01/25 23:24:39;;;;;;;17.90;9.73;;;;;;;0.34;72.59;98752.38;3625146;80;28192;-67
2021/01/25 23:29:43;;;;;;;19.20;10.15;;;;;;;0.30;71.77;98751.17;3623852;81;30529;-67
2021/01/25 23:34:46;;;;;;;21.90;14.30;;;;;;;0.38;71.68;98754.11;3624285;81;30587;-66
2021/01/25 23:39:51;;;;;;;22.20;11.65;;;;;;;0.39;72.23;98761.48;3624433;80;27465;-68